Time,TemperatureF,DewpointF,PressureIn,WindDirection,WindDirectionDegrees,WindSpeedMPH,WindSpeedGustMPH,Humidity,HourlyPrecipIn,Conditions,Clouds,dailyrainin,SoftwareType,DateUTC
2013-05-06 00:02:00,47.0,30.0,29.39,West,281,0.0,0.0,51,0.00,,,0.00,,2013-05-06 06:02:00,
2013-05-06 00:12:00,47.0,30.0,29.39,West,281,0.0,0.0,51,0.00,,,0.00,,2013-05-06 06:12:00,
2013-05-06 00:21:00,46.0,29.0,29.37,West,281,0.0,0.0,52,0.00,,,0.00,,2013-05-06 06:21:00,
2013-05-06 00:31:00,46.0,29.0,29.37,West,281,0.0,0.0,52,0.00,,,0.00,,2013-05-06 06:31:00,
2013-05-06 00:41:00,46.0,29.0,29.37,West,281,0.0,0.0,52,0.00,,,0.00,,2013-05-06 06:41:00,
2013-05-06 00:52:00,45.0,29.0,29.39,West,281,0.0,0.0,54,0.00,,,0.00,,2013-05-06 06:52:00,
2013-05-06 01:01:00,45.0,30.0,29.39,West,281,0.0,0.0,56,0.00,,,0.00,,2013-05-06 07:01:00,
2013-05-06 01:11:00,45.0,30.0,29.39,West,281,0.0,0.0,56,0.00,,,0.00,,2013-05-06 07:11:00,
2013-05-06 01:22:00,44.0,29.0,29.40,West,281,0.0,0.0,56,0.00,,,0.00,,2013-05-06 07:22:00,
2013-05-06 01:31:00,44.0,29.0,29.40,West,281,0.0,1.0,56,0.00,,,0.00,,2013-05-06 07:31:00,
2013-05-06 01:41:00,44.0,29.0,29.40,West,281,0.0,1.0,56,0.00,,,0.00,,2013-05-06 07:41:00,
2013-05-06 01:52:00,44.0,30.0,29.40,West,281,0.0,0.0,57,0.00,,,0.00,,2013-05-06 07:52:00,
2013-05-06 02:01:00,44.0,31.0,29.40,West,281,0.0,0.0,59,0.00,,,0.00,,2013-05-06 08:01:00,
2013-05-06 02:11:00,44.0,31.0,29.40,West,281,0.0,0.0,59,0.00,,,0.00,,2013-05-06 08:11:00,
2013-05-06 02:21:00,44.0,30.0,29.39,West,281,0.0,0.0,58,0.00,,,0.00,,2013-05-06 08:21:00,
2013-05-06 02:31:00,44.0,30.0,29.39,West,281,0.0,0.0,58,0.00,,,0.00,,2013-05-06 08:31:00,
2013-05-06 02:41:00,44.0,30.0,29.39,West,281,0.0,0.0,58,0.00,,,0.00,,2013-05-06 08:41:00,
2013-05-06 02:52:00,44.0,31.0,29.39,West,281,0.0,0.0,59,0.00,,,0.00,,2013-05-06 08:52:00,
2013-05-06 03:01:00,43.0,30.0,29.39,West,281,0.0,2.0,60,0.00,,,0.00,,2013-05-06 09:01:00,
2013-05-06 03:11:00,43.0,30.0,29.39,West,281,0.0,2.0,60,0.00,,,0.00,,2013-05-06 09:11:00,
2013-05-06 03:22:00,43.0,30.0,29.39,WNW,285,0.0,2.0,60,0.00,,,0.00,,2013-05-06 09:22:00,
2013-05-06 03:32:00,43.0,30.0,29.39,WNW,285,0.0,1.0,60,0.00,,,0.00,,2013-05-06 09:32:00,
2013-05-06 03:42:00,43.0,30.0,29.39,WNW,285,0.0,1.0,60,0.00,,,0.00,,2013-05-06 09:42:00,
2013-05-06 03:53:00,43.0,30.0,29.39,WNW,285,0.0,0.0,61,0.00,,,0.00,,2013-05-06 09:53:00,
2013-05-06 04:02:00,42.0,30.0,29.41,WNW,285,0.0,0.0,62,0.00,,,0.00,,2013-05-06 10:02:00,
2013-05-06 04:12:00,42.0,30.0,29.41,WNW,285,0.0,0.0,62,0.00,,,0.00,,2013-05-06 10:12:00,
2013-05-06 04:22:00,42.0,30.0,29.40,WNW,285,0.0,0.0,63,0.00,,,0.00,,2013-05-06 10:22:00,
2013-05-06 04:32:00,41.0,30.0,29.40,WNW,285,0.0,0.0,64,0.00,,,0.00,,2013-05-06 10:32:00,
2013-05-06 04:41:00,41.0,30.0,29.40,WNW,285,0.0,0.0,64,0.00,,,0.00,,2013-05-06 10:41:00,
2013-05-06 04:52:00,41.0,30.0,29.40,WNW,285,0.0,0.0,65,0.00,,,0.00,,2013-05-06 10:52:00,
2013-05-06 05:02:00,41.0,30.0,29.40,WNW,285,0.0,2.0,65,0.00,,,0.00,,2013-05-06 11:02:00,
2013-05-06 05:11:00,41.0,30.0,29.40,WNW,285,0.0,2.0,65,0.00,,,0.00,,2013-05-06 11:11:00,
2013-05-06 05:22:00,41.0,31.0,29.41,WNW,285,0.0,0.0,66,0.00,,,0.00,,2013-05-06 11:22:00,
2013-05-06 05:31:00,41.0,31.0,29.41,WNW,285,0.0,0.0,66,0.00,,,0.00,,2013-05-06 11:31:00,
2013-05-06 05:41:00,41.0,31.0,29.41,WNW,285,0.0,0.0,66,0.00,,,0.00,,2013-05-06 11:41:00,
2013-05-06 05:52:00,40.0,30.0,29.43,WNW,285,0.0,0.0,67,0.00,,,0.00,,2013-05-06 11:52:00,
2013-05-06 06:01:00,40.0,30.0,29.43,WNW,285,0.0,0.0,67,0.00,,,0.00,,2013-05-06 12:01:00,
2013-05-06 06:12:00,40.0,30.0,29.43,WNW,285,0.0,0.0,67,0.00,,,0.00,,2013-05-06 12:12:00,
2013-05-06 06:21:00,40.0,30.0,29.45,WNW,285,0.0,0.0,68,0.00,,,0.00,,2013-05-06 12:21:00,
2013-05-06 06:31:00,40.0,30.0,29.45,WNW,285,0.0,0.0,68,0.00,,,0.00,,2013-05-06 12:31:00,
2013-05-06 06:41:00,40.0,30.0,29.45,WNW,285,0.0,0.0,68,0.00,,,0.00,,2013-05-06 12:41:00,
2013-05-06 06:52:00,40.0,31.0,29.45,WNW,282,0.0,0.0,69,0.00,,,0.00,,2013-05-06 12:52:00,
2013-05-06 07:01:00,39.0,30.0,29.45,WNW,282,0.0,0.0,69,0.00,,,0.00,,2013-05-06 13:01:00,
2013-05-06 07:11:00,39.0,30.0,29.45,WNW,282,0.0,0.0,69,0.00,,,0.00,,2013-05-06 13:11:00,
2013-05-06 07:21:00,40.0,31.0,29.46,WNW,282,0.0,0.0,70,0.00,,,0.00,,2013-05-06 13:21:00,
2013-05-06 07:31:00,40.0,31.0,29.46,WNW,282,0.0,0.0,70,0.00,,,0.00,,2013-05-06 13:31:00,
2013-05-06 07:42:00,40.0,31.0,29.46,WNW,282,0.0,0.0,70,0.00,,,0.00,,2013-05-06 13:42:00,
2013-05-06 07:52:00,41.0,32.0,29.47,WNW,282,0.0,0.0,70,0.00,,,0.00,,2013-05-06 13:52:00,
2013-05-06 08:01:00,41.0,32.0,29.46,WNW,283,0.0,0.0,69,0.00,,,0.00,,2013-05-06 14:01:00,
2013-05-06 08:11:00,41.0,32.0,29.46,WNW,283,0.0,0.0,69,0.00,,,0.00,,2013-05-06 14:11:00,
2013-05-06 08:21:00,42.0,32.0,29.48,WNW,284,0.0,0.0,68,0.00,,,0.00,,2013-05-06 14:21:00,
2013-05-06 08:32:00,42.0,32.0,29.48,WNW,284,0.0,2.0,67,0.00,,,0.00,,2013-05-06 14:32:00,
2013-05-06 08:42:00,43.0,32.0,29.47,WNW,296,0.0,1.0,66,0.00,,,0.00,,2013-05-06 14:42:00,
2013-05-06 08:51:00,43.0,32.0,29.47,WNW,296,0.0,1.0,66,0.00,,,0.00,,2013-05-06 14:51:00,
2013-05-06 09:01:00,44.0,33.0,29.46,WNW,296,0.0,0.0,64,0.00,,,0.00,,2013-05-06 15:01:00,
2013-05-06 09:11:00,44.0,33.0,29.46,WNW,296,0.0,0.0,64,0.00,,,0.00,,2013-05-06 15:11:00,
2013-05-06 09:21:00,46.0,33.0,29.45,WNW,297,0.0,2.0,61,0.00,,,0.00,,2013-05-06 15:21:00,
2013-05-06 09:32:00,47.0,33.0,29.46,WNW,297,1.0,3.0,57,0.00,,,0.00,,2013-05-06 15:32:00,
2013-05-06 09:42:00,47.0,33.0,29.46,WNW,297,1.0,3.0,57,0.00,,,0.00,,2013-05-06 15:42:00,
2013-05-06 09:53:00,48.0,32.0,29.46,WNW,297,1.0,2.0,54,0.00,,,0.00,,2013-05-06 15:53:00,
2013-05-06 10:02:00,51.0,33.0,29.43,WNW,297,0.0,1.0,49,0.00,,,0.00,,2013-05-06 16:02:00,
2013-05-06 10:12:00,51.0,33.0,29.43,WNW,297,0.0,1.0,49,0.00,,,0.00,,2013-05-06 16:12:00,
2013-05-06 10:22:00,51.0,30.0,29.44,ENE,61,4.0,7.0,45,0.00,,,0.00,,2013-05-06 16:22:00,
2013-05-06 10:32:00,54.0,29.0,29.42,East,82,1.0,7.0,38,0.00,,,0.00,,2013-05-06 16:32:00,
2013-05-06 10:41:00,54.0,29.0,29.42,East,82,1.0,7.0,38,0.00,,,0.00,,2013-05-06 16:41:00,
2013-05-06 10:52:00,57.0,30.0,29.39,NE,47,1.0,5.0,35,0.00,,,0.00,,2013-05-06 16:52:00,
2013-05-06 11:02:00,57.0,27.0,29.40,ESE,110,6.0,13.0,31,0.00,,,0.00,,2013-05-06 17:02:00,
2013-05-06 11:11:00,57.0,27.0,29.40,ESE,110,6.0,13.0,31,0.00,,,0.00,,2013-05-06 17:11:00,
2013-05-06 11:22:00,57.0,27.0,29.42,ENE,71,6.0,12.0,31,0.00,,,0.00,,2013-05-06 17:22:00,
2013-05-06 11:31:00,58.0,26.0,29.40,SE,126,5.0,12.0,29,0.00,,,0.00,,2013-05-06 17:31:00,
2013-05-06 11:42:00,58.0,26.0,29.40,SE,126,5.0,12.0,29,0.00,,,0.00,,2013-05-06 17:42:00,
2013-05-06 11:52:00,58.0,25.0,29.40,ESE,110,7.0,12.0,28,0.00,,,0.00,,2013-05-06 17:52:00,
2013-05-06 12:01:00,58.0,24.0,29.40,SE,138,5.0,8.0,27,0.00,,,0.00,,2013-05-06 18:01:00,
2013-05-06 12:11:00,58.0,24.0,29.40,SE,138,5.0,8.0,27,0.00,,,0.00,,2013-05-06 18:11:00,
2013-05-06 12:21:00,59.0,24.0,29.41,WSW,247,3.0,6.0,26,0.00,,,0.00,,2013-05-06 18:21:00,
2013-05-06 12:31:00,60.0,22.0,29.39,WNW,299,2.0,5.0,23,0.00,,,0.00,,2013-05-06 18:31:00,
2013-05-06 12:42:00,60.0,22.0,29.39,WNW,299,2.0,5.0,23,0.00,,,0.00,,2013-05-06 18:42:00,
2013-05-06 12:52:00,58.0,23.0,29.41,WSW,248,6.0,12.0,26,0.00,,,0.00,,2013-05-06 18:52:00,
2013-05-06 13:01:00,58.0,24.0,29.40,WNW,298,6.0,12.0,27,0.00,,,0.00,,2013-05-06 19:01:00,
2013-05-06 13:11:00,58.0,24.0,29.40,WNW,298,6.0,12.0,27,0.00,,,0.00,,2013-05-06 19:11:00,
2013-05-06 13:21:00,58.0,24.0,29.40,NNW,347,5.0,9.0,27,0.00,,,0.00,,2013-05-06 19:21:00,
2013-05-06 13:32:00,58.0,25.0,29.40,NE,49,3.0,6.0,28,0.00,,,0.00,,2013-05-06 19:32:00,
2013-05-06 13:41:00,58.0,25.0,29.40,NE,49,3.0,6.0,28,0.00,,,0.00,,2013-05-06 19:41:00,
2013-05-06 13:52:00,61.0,26.0,29.38,ESE,114,4.0,12.0,26,0.00,,,0.00,,2013-05-06 19:52:00,
2013-05-06 14:01:00,60.0,24.0,29.37,ESE,102,3.0,7.0,25,0.00,,,0.00,,2013-05-06 20:01:00,
2013-05-06 14:11:00,60.0,24.0,29.37,ESE,102,3.0,7.0,25,0.00,,,0.00,,2013-05-06 20:11:00,
2013-05-06 14:21:00,60.0,24.0,29.38,ENE,68,5.0,12.0,25,0.00,,,0.00,,2013-05-06 20:21:00,
2013-05-06 14:32:00,61.0,24.0,29.36,East,83,5.0,7.0,24,0.00,,,0.00,,2013-05-06 20:32:00,
2013-05-06 14:41:00,61.0,24.0,29.36,East,83,5.0,7.0,24,0.00,,,0.00,,2013-05-06 20:41:00,
2013-05-06 14:52:00,60.0,23.0,29.37,East,100,3.0,6.0,24,0.00,,,0.00,,2013-05-06 20:52:00,
2013-05-06 15:01:00,60.0,22.0,29.38,East,88,0.0,2.0,23,0.00,,,0.00,,2013-05-06 21:01:00,
2013-05-06 15:11:00,60.0,22.0,29.38,East,88,0.0,2.0,23,0.00,,,0.00,,2013-05-06 21:11:00,
2013-05-06 15:21:00,58.0,25.0,29.40,West,260,0.0,9.0,28,0.00,,,0.00,,2013-05-06 21:21:00,
2013-05-06 15:32:00,55.0,30.0,29.44,WSW,252,6.0,14.0,38,0.00,,,0.00,,2013-05-06 21:32:00,
2013-05-06 15:42:00,55.0,30.0,29.44,WSW,252,6.0,14.0,38,0.00,,,0.00,,2013-05-06 21:42:00,
2013-05-06 15:53:00,53.0,33.0,29.46,NW,304,2.0,7.0,47,0.00,,,0.00,,2013-05-06 21:53:00,
2013-05-06 16:02:00,52.0,34.0,29.47,NW,318,2.0,5.0,51,0.00,,,0.00,,2013-05-06 22:02:00,
2013-05-06 16:12:00,52.0,34.0,29.47,NW,318,2.0,5.0,51,0.00,,,0.00,,2013-05-06 22:12:00,
2013-05-06 16:22:00,53.0,34.0,29.46,North,9,1.0,7.0,48,0.00,,,0.00,,2013-05-06 22:22:00,
2013-05-06 16:33:00,53.0,34.0,29.45,North,349,1.0,7.0,48,0.00,,,0.00,,2013-05-06 22:33:00,
2013-05-06 16:45:00,53.0,34.0,29.45,North,349,1.0,7.0,48,0.00,,,0.00,,2013-05-06 22:45:00,
2013-05-06 16:52:00,53.0,32.0,29.45,WNW,291,1.0,6.0,45,0.00,,,0.00,,2013-05-06 22:52:00,
2013-05-06 17:02:00,55.0,33.0,29.43,North,356,1.0,6.0,44,0.00,,,0.00,,2013-05-06 23:02:00,
2013-05-06 17:11:00,55.0,33.0,29.43,North,356,1.0,6.0,44,0.00,,,0.00,,2013-05-06 23:11:00,
2013-05-06 17:22:00,55.0,31.0,29.45,NNW,332,3.0,6.0,40,0.00,,,0.00,,2013-05-06 23:22:00,
2013-05-06 17:31:00,55.0,29.0,29.44,WSW,258,2.0,7.0,37,0.00,,,0.00,,2013-05-06 23:31:00,
2013-05-06 17:41:00,55.0,29.0,29.44,WSW,258,2.0,7.0,37,0.00,,,0.00,,2013-05-06 23:41:00,
2013-05-06 17:52:00,55.0,31.0,29.45,West,278,2.0,5.0,39,0.00,,,0.00,,2013-05-06 23:52:00,
2013-05-06 18:01:00,54.0,33.0,29.45,ESE,105,9.0,13.0,44,0.00,,,0.00,,2013-05-07 00:01:00,
2013-05-06 18:11:00,54.0,33.0,29.45,ESE,105,9.0,13.0,44,0.00,,,0.00,,2013-05-07 00:11:00,
2013-05-06 18:21:00,52.0,33.0,29.46,SE,129,5.0,8.0,48,0.00,,,0.00,,2013-05-07 00:21:00,
2013-05-06 18:31:00,52.0,32.0,29.47,East,97,7.0,12.0,47,0.00,,,0.00,,2013-05-07 00:31:00,
2013-05-06 18:41:00,52.0,32.0,29.47,East,97,7.0,12.0,47,0.00,,,0.00,,2013-05-07 00:41:00,
2013-05-06 18:52:00,52.0,33.0,29.46,ESE,117,9.0,12.0,48,0.00,,,0.00,,2013-05-07 00:52:00,
2013-05-06 19:01:00,51.0,35.0,29.47,East,79,9.0,13.0,54,0.00,,,0.00,,2013-05-07 01:01:00,
2013-05-06 19:11:00,51.0,35.0,29.47,East,79,9.0,13.0,54,0.00,,,0.00,,2013-05-07 01:11:00,
2013-05-06 19:21:00,51.0,35.0,29.46,East,86,6.0,12.0,55,0.00,,,0.00,,2013-05-07 01:21:00,
2013-05-06 19:31:00,51.0,34.0,29.46,East,100,8.0,12.0,51,0.00,,,0.00,,2013-05-07 01:31:00,
2013-05-06 19:41:00,51.0,34.0,29.46,East,100,8.0,12.0,51,0.00,,,0.00,,2013-05-07 01:41:00,
2013-05-06 19:52:00,51.0,34.0,29.46,East,96,6.0,12.0,52,0.00,,,0.00,,2013-05-07 01:52:00,
2013-05-06 20:01:00,50.0,34.0,29.46,East,85,7.0,12.0,54,0.00,,,0.00,,2013-05-07 02:01:00,
2013-05-06 20:11:00,50.0,34.0,29.46,East,85,7.0,12.0,54,0.00,,,0.00,,2013-05-07 02:11:00,
2013-05-06 20:21:00,50.0,34.0,29.43,East,90,5.0,8.0,54,0.00,,,0.00,,2013-05-07 02:21:00,
2013-05-06 20:31:00,50.0,34.0,29.43,ENE,74,7.0,12.0,53,0.00,,,0.00,,2013-05-07 02:31:00,
2013-05-06 20:41:00,50.0,34.0,29.43,ENE,74,7.0,12.0,53,0.00,,,0.00,,2013-05-07 02:41:00,
2013-05-06 20:52:00,49.0,34.0,29.43,ESE,107,6.0,10.0,56,0.00,,,0.00,,2013-05-07 02:52:00,
2013-05-06 21:01:00,49.0,36.0,29.45,ESE,113,7.0,12.0,60,0.00,,,0.00,,2013-05-07 03:01:00,
2013-05-06 21:11:00,49.0,36.0,29.45,ESE,113,7.0,12.0,60,0.00,,,0.00,,2013-05-07 03:11:00,
2013-05-06 21:21:00,48.0,36.0,29.43,ESE,109,5.0,8.0,62,0.00,,,0.00,,2013-05-07 03:21:00,
2013-05-06 21:32:00,47.0,35.0,29.44,ESE,107,2.0,8.0,63,0.00,,,0.00,,2013-05-07 03:32:00,
2013-05-06 21:42:00,47.0,35.0,29.44,ESE,107,2.0,8.0,63,0.00,,,0.00,,2013-05-07 03:42:00,
2013-05-06 21:53:00,47.0,35.0,29.44,SE,129,2.0,5.0,63,0.00,,,0.00,,2013-05-07 03:53:00,
2013-05-06 22:02:00,47.0,35.0,29.44,SE,124,4.0,7.0,62,0.00,,,0.00,,2013-05-07 04:02:00,
2013-05-06 22:12:00,47.0,35.0,29.44,SE,124,4.0,7.0,62,0.00,,,0.00,,2013-05-07 04:12:00,
2013-05-06 22:23:00,47.0,35.0,29.44,ESE,112,5.0,12.0,63,0.00,,,0.00,,2013-05-07 04:23:00,
2013-05-06 22:32:00,47.0,36.0,29.42,East,100,7.0,13.0,65,0.00,,,0.00,,2013-05-07 04:32:00,
2013-05-06 22:42:00,47.0,36.0,29.42,East,100,7.0,13.0,65,0.00,,,0.00,,2013-05-07 04:42:00,
2013-05-06 22:53:00,47.0,36.0,29.42,East,97,9.0,13.0,65,0.00,,,0.00,,2013-05-07 04:53:00,
2013-05-06 23:02:00,46.0,36.0,29.43,East,89,3.0,8.0,67,0.00,,,0.00,,2013-05-07 05:02:00,
2013-05-06 23:12:00,46.0,36.0,29.43,East,89,3.0,8.0,67,0.00,,,0.00,,2013-05-07 05:12:00,
2013-05-06 23:22:00,46.0,36.0,29.42,ESE,103,2.0,3.0,67,0.00,,,0.00,,2013-05-07 05:22:00,
2013-05-06 23:32:00,46.0,36.0,29.42,East,82,0.0,6.0,69,0.00,,,0.00,,2013-05-07 05:32:00,
2013-05-06 23:42:00,46.0,36.0,29.42,East,82,0.0,6.0,69,0.00,,,0.00,,2013-05-07 05:42:00,
2013-05-06 23:52:00,45.0,36.0,29.42,East,80,0.0,0.0,71,0.00,,,0.00,,2013-05-07 05:52:00,